createdAt,value
2022-11-14T10:27:28.324Z,14.30
2022-11-14T10:33:17.013Z,16.90
2022-11-14T10:39:22.116Z,14.50
2022-11-14T10:44:51.166Z,14.90
2022-11-14T10:50:41.100Z,17.20
2022-11-14T10:56:04.775Z,15.80
2022-11-14T11:01:42.219Z,15.00
2022-11-14T11:07:08.470Z,13.00
2022-11-14T11:12:46.443Z,15.20
2022-11-14T11:18:36.713Z,14.80
2022-11-14T11:23:57.757Z,13.10
2022-11-14T11:29:19.955Z,13.50
2022-11-14T11:34:40.646Z,14.40
2022-11-14T11:40:04.552Z,15.60
2022-11-14T11:45:26.147Z,14.90
2022-11-14T11:50:47.227Z,14.00
2022-11-14T11:56:19.673Z,16.00
2022-11-14T12:01:40.658Z,17.00
2022-11-14T12:07:10.860Z,18.00
2022-11-14T12:12:43.564Z,17.70
2022-11-14T12:18:22.581Z,18.80
2022-11-14T12:24:17.540Z,18.40
2022-11-14T12:29:53.343Z,16.10
2022-11-14T12:35:27.398Z,19.30
2022-11-14T12:41:00.424Z,18.60
2022-11-14T12:46:20.986Z,19.40
2022-11-14T12:51:49.010Z,17.40
2022-11-14T12:57:37.640Z,16.40
2022-11-14T13:03:13.243Z,16.50
2022-11-14T13:09:11.306Z,16.60
2022-11-14T13:15:06.748Z,19.40
2022-11-14T13:20:54.429Z,17.50
2022-11-14T13:26:14.831Z,15.90
2022-11-14T13:42:43.964Z,16.90
2022-11-14T13:48:20.155Z,18.50
2022-11-14T13:53:42.022Z,15.40
2022-11-14T13:59:27.750Z,15.30
2022-11-14T14:05:21.224Z,15.50
2022-11-14T14:10:43.306Z,18.90
2022-11-14T14:16:15.533Z,16.10
2022-11-14T14:22:08.587Z,16.80
2022-11-14T14:28:06.282Z,18.90
2022-11-14T14:33:26.991Z,18.90
2022-11-14T14:38:47.934Z,18.10
2022-11-14T14:44:27.321Z,19.30
2022-11-14T14:49:47.911Z,20.10
2022-11-14T14:55:20.131Z,18.70
2022-11-14T15:00:40.564Z,18.30
2022-11-14T15:06:17.893Z,41.00
2022-11-14T15:11:43.793Z,25.40
2022-11-14T15:17:05.093Z,23.40
2022-11-14T15:22:29.353Z,21.40
2022-11-14T15:27:58.941Z,21.80
2022-11-14T15:33:31.174Z,22.40
2022-11-14T15:39:27.114Z,20.40
2022-11-14T15:44:49.162Z,19.20
2022-11-14T15:50:13.064Z,21.50
2022-11-14T15:55:33.605Z,25.80
2022-11-14T16:00:55.748Z,23.90
2022-11-14T16:06:17.129Z,22.50
2022-11-14T16:11:38.012Z,26.10
2022-11-14T16:16:58.868Z,26.50
2022-11-14T16:22:19.608Z,26.70
2022-11-14T16:27:40.392Z,26.20
2022-11-14T16:33:01.001Z,25.20
2022-11-14T16:38:21.670Z,26.80
2022-11-14T16:43:42.366Z,24.50
2022-11-14T16:49:03.185Z,23.70
2022-11-14T16:54:24.666Z,22.10
2022-11-14T16:59:45.518Z,22.50
2022-11-14T17:05:06.358Z,21.90
2022-11-14T17:10:26.686Z,21.30
2022-11-14T17:15:47.154Z,21.40
2022-11-14T17:21:10.572Z,20.50
2022-11-14T17:26:31.316Z,21.50
2022-11-14T17:31:51.987Z,18.00
2022-11-14T17:37:12.611Z,21.50
2022-11-14T17:42:33.247Z,22.00
2022-11-14T17:47:54.104Z,23.40
2022-11-14T17:53:15.207Z,21.90
2022-11-14T17:58:35.783Z,22.40
2022-11-14T18:04:00.402Z,20.20
2022-11-14T18:09:23.726Z,18.90
2022-11-14T18:14:44.609Z,19.70
2022-11-14T18:20:06.078Z,20.60
2022-11-14T18:25:26.479Z,19.90
2022-11-14T18:30:55.667Z,19.70
2022-11-14T18:36:17.347Z,19.80
2022-11-14T18:41:38.127Z,16.20
2022-11-14T18:46:58.991Z,15.90
2022-11-14T18:52:19.841Z,17.10
2022-11-14T18:57:40.520Z,16.60
2022-11-14T19:03:05.812Z,18.90
2022-11-14T19:08:27.334Z,17.30
2022-11-14T19:13:48.051Z,18.40
2022-11-14T19:19:09.401Z,17.00
2022-11-14T19:24:30.134Z,19.10
2022-11-14T19:29:51.000Z,16.20
2022-11-14T19:35:14.805Z,13.70
2022-11-14T19:40:39.753Z,17.60
2022-11-14T19:46:02.903Z,14.70
2022-11-14T19:51:24.608Z,17.00
2022-11-14T19:56:45.243Z,15.10
2022-11-14T20:02:06.116Z,16.90
2022-11-14T20:07:26.800Z,15.20
2022-11-14T20:12:47.305Z,20.40
2022-11-14T20:18:08.078Z,19.00
2022-11-14T20:23:29.348Z,21.70
2022-11-14T20:28:52.896Z,20.90
2022-11-14T20:34:13.770Z,19.20
2022-11-14T20:39:34.448Z,19.50
2022-11-14T20:44:55.048Z,19.20
2022-11-14T21:06:17.168Z,17.50
2022-11-14T21:11:37.744Z,20.60
2022-11-14T21:16:58.457Z,17.80
2022-11-14T21:22:19.575Z,15.60
2022-11-14T21:27:40.150Z,16.80
2022-11-14T21:33:00.760Z,16.10
2022-11-14T21:38:21.640Z,15.00
2022-11-14T21:43:43.772Z,16.10
2022-11-14T21:49:04.484Z,16.00
2022-11-14T21:54:25.155Z,14.20
2022-11-14T21:59:45.953Z,15.70
2022-11-14T22:05:08.038Z,17.70
2022-11-14T22:10:28.482Z,16.20
2022-11-14T22:15:51.263Z,17.80
2022-11-14T22:21:12.181Z,19.30
2022-11-14T22:26:35.413Z,18.70
2022-11-14T22:31:57.534Z,14.70
2022-11-14T22:37:18.153Z,13.50
2022-11-14T22:42:38.759Z,15.80
2022-11-14T22:48:03.387Z,14.10
2022-11-14T22:53:24.044Z,15.20
2022-11-14T23:04:05.666Z,11.80
2022-11-14T23:09:27.257Z,14.30
2022-11-14T23:14:47.931Z,12.50
2022-11-14T23:20:15.104Z,14.40
2022-11-14T23:25:38.007Z,13.80
2022-11-14T23:30:59.679Z,13.50
2022-11-14T23:36:20.317Z,11.60
2022-11-14T23:41:40.801Z,11.30
2022-11-14T23:47:01.764Z,11.10
2022-11-14T23:52:22.287Z,14.00
2022-11-14T23:57:42.973Z,14.40
